Time;durP1;ratioP1;P1;durP2;ratioP2;P2;SDS_P1;SDS_P2;PMS_P1;PMS_P2;Temp;Humidity;BMP_temperature;BMP_pressure;BME280_temperature;BME280_humidity;BME280_pressure;Samples;Min_cycle;Max_cycle;Signal;HPM_P1;HPM_P2
2022/07/08 00:01:57;;;;;;;2.53;1.80;;;;;;;21.08;100.00;100148.31;5052428;28;20215;-73
2022/07/08 00:04:24;;;;;;;2.08;1.90;;;;;;;21.00;100.00;100127.44;5052776;28;20210;-74
2022/07/08 00:06:51;;;;;;;2.25;1.85;;;;;;;20.90;100.00;100112.78;5052814;28;20219;-73
2022/07/08 00:09:19;;;;;;;1.63;1.58;;;;;;;20.94;100.00;100139.91;5052231;28;20192;-73
2022/07/08 00:11:47;;;;;;;1.90;1.80;;;;;;;20.93;100.00;100128.50;5051631;28;20668;-73
2022/07/08 00:14:14;;;;;;;2.08;1.85;;;;;;;21.07;100.00;100141.31;5050910;28;20206;-73
2022/07/08 00:16:43;;;;;;;1.95;1.85;;;;;;;21.14;100.00;100146.41;5017550;28;20214;-73
2022/07/08 00:19:11;;;;;;;2.03;1.92;;;;;;;21.15;100.00;100153.41;5052669;28;20207;-74
2022/07/08 00:21:38;;;;;;;2.80;1.80;;;;;;;21.17;100.00;100151.59;5051401;28;20200;-73
2022/07/08 00:24:06;;;;;;;2.00;1.90;;;;;;;21.11;100.00;100157.06;5038021;28;20210;-73
2022/07/08 00:26:33;;;;;;;2.20;2.10;;;;;;;21.15;100.00;100153.41;5051800;28;20717;-72
2022/07/08 00:29:01;;;;;;;2.20;2.00;;;;;;;21.16;100.00;100155.13;5051843;28;20691;-74
2022/07/08 00:31:28;;;;;;;2.38;2.03;;;;;;;20.98;100.00;100142.41;5051871;28;20218;-73
2022/07/08 00:33:55;;;;;;;3.00;2.38;;;;;;;20.81;100.00;100128.81;5051431;28;20694;-73
2022/07/08 00:36:22;;;;;;;2.28;2.17;;;;;;;20.69;100.00;100142.31;5052299;28;20598;-73
2022/07/08 00:38:49;;;;;;;2.35;2.25;;;;;;;20.75;100.00;100152.69;5016856;28;20207;-73
2022/07/08 00:41:16;;;;;;;2.72;2.53;;;;;;;20.82;100.00;100145.50;5042959;28;20200;-73
2022/07/08 00:43:45;;;;;;;2.72;2.35;;;;;;;20.88;100.00;100138.28;5051542;28;20202;-73
2022/07/08 00:46:14;;;;;;;2.78;2.58;;;;;;;20.97;100.00;100135.44;5052184;28;20288;-73
2022/07/08 00:48:41;;;;;;;2.65;2.53;;;;;;;20.86;100.00;100129.56;5051484;28;20203;-73
2022/07/08 00:51:14;;;;;;;2.70;2.60;;;;;;;20.80;100.00;100134.97;5051757;28;20648;-73
2022/07/08 00:53:43;;;;;;;5.50;2.90;;;;;;;20.48;100.00;100100.69;5051711;28;20767;-73
2022/07/08 00:56:11;;;;;;;2.80;2.60;;;;;;;20.67;100.00;100117.75;5051858;28;20196;-73
2022/07/08 00:58:38;;;;;;;3.85;3.50;;;;;;;20.59;100.00;100112.69;5016483;28;20199;-73
2022/07/08 01:01:06;;;;;;;5.25;3.58;;;;;;;20.51;100.00;100116.44;5051493;28;20210;-74
2022/07/08 01:03:35;;;;;;;4.25;3.95;;;;;;;20.47;100.00;100114.78;5032321;28;20644;-73
2022/07/08 01:06:02;;;;;;;4.25;3.95;;;;;;;20.40;100.00;100118.47;5050811;28;20230;-74
2022/07/08 01:08:29;;;;;;;3.60;3.40;;;;;;;20.22;100.00;100093.41;5051743;28;20203;-73
2022/07/08 01:10:56;;;;;;;4.30;3.38;;;;;;;20.14;100.00;100109.38;5051259;28;20587;-73
2022/07/08 01:13:24;;;;;;;3.58;3.28;;;;;;;20.20;100.00;100101.31;5051437;28;20199;-74
2022/07/08 01:15:51;;;;;;;6.47;3.90;;;;;;;20.24;100.00;100096.84;5050783;28;20200;-74
2022/07/08 01:18:22;;;;;;;4.32;3.72;;;;;;;20.12;100.00;100090.09;5051661;28;20199;-74
2022/07/08 01:20:50;;;;;;;3.72;3.53;;;;;;;20.00;100.00;100079.88;5050856;28;20192;-73
2022/07/08 01:23:17;;;;;;;7.45;4.00;;;;;;;19.59;100.00;100016.78;5019830;28;20787;-73
2022/07/08 01:25:45;;;;;;;4.88;4.32;;;;;;;19.97;100.00;100093.13;5047703;28;20670;-73
2022/07/08 01:28:12;;;;;;;5.13;4.00;;;;;;;19.78;100.00;100060.22;5066346;28;20210;-74
2022/07/08 01:30:39;;;;;;;6.70;6.10;;;;;;;19.89;100.00;100084.53;5050489;28;20199;-74
2022/07/08 01:33:05;;;;;;;12.80;8.82;;;;;;;19.86;100.00;100084.59;5050239;28;20210;-73
2022/07/08 01:35:32;;;;;;;9.02;7.75;;;;;;;19.88;100.00;100080.16;5051177;28;20199;-73
2022/07/08 01:38:01;;;;;;;10.70;8.27;;;;;;;20.12;100.00;100090.09;5015828;28;20210;-73
2022/07/08 01:40:28;;;;;;;8.68;7.03;;;;;;;20.08;100.00;100095.50;5051309;28;20203;-73
2022/07/08 01:42:55;;;;;;;7.63;4.93;;;;;;;20.12;100.00;100092.72;5013835;28;20199;-73
2022/07/08 01:45:22;;;;;;;4.97;4.50;;;;;;;19.99;100.00;100074.63;5031200;28;20200;-73
2022/07/08 01:47:48;;;;;;;5.45;4.95;;;;;;;20.09;100.00;100094.56;5031226;28;20235;-73
2022/07/08 01:50:15;;;;;;;16.98;11.80;;;;;;;20.06;100.00;100098.16;4996415;28;20200;-73
2022/07/08 01:52:42;;;;;;;27.17;16.13;;;;;;;19.93;100.00;100104.59;5040595;28;20607;-73
2022/07/08 01:55:10;;;;;;;30.85;18.48;;;;;;;19.80;100.00;100089.97;5051290;28;20226;-73
2022/07/08 01:57:37;;;;;;;31.55;20.42;;;;;;;19.92;100.00;100089.72;5050405;28;20654;-73
2022/07/08 02:00:06;;;;;;;31.50;19.70;;;;;;;19.76;100.00;100069.91;5050367;28;20248;-73
2022/07/08 02:02:33;;;;;;;25.13;17.58;;;;;;;19.74;100.00;100085.72;5049711;28;20278;-74
2022/07/08 02:05:00;;;;;;;27.95;20.52;;;;;;;19.89;100.00;100091.53;5031673;28;20203;-73
2022/07/08 02:07:27;;;;;;;30.13;19.05;;;;;;;19.70;100.00;100089.31;5050346;28;20223;-73
2022/07/08 02:09:54;;;;;;;26.95;17.60;;;;;;;19.65;100.00;100085.06;5050569;28;20257;-74
2022/07/08 02:12:21;;;;;;;20.95;14.77;;;;;;;19.52;100.00;100080.97;5050286;28;20210;-73
2022/07/08 02:14:49;;;;;;;17.95;13.63;;;;;;;19.59;100.00;100085.19;5049270;28;20200;-73
2022/07/08 02:17:16;;;;;;;17.75;12.73;;;;;;;19.75;100.00;100105.00;5049297;28;20679;-73
2022/07/08 02:19:44;;;;;;;15.50;11.23;;;;;;;19.90;100.00;100112.56;5050356;28;20208;-73
2022/07/08 02:22:11;;;;;;;28.13;11.52;;;;;;;19.98;100.00;100115.88;5050325;28;20277;-73
2022/07/08 02:24:38;;;;;;;14.48;9.15;;;;;;;19.92;100.00;100094.97;5050465;28;20211;-73
2022/07/08 02:27:06;;;;;;;16.70;9.25;;;;;;;20.09;100.00;100113.88;5050787;28;20257;-73
2022/07/08 02:29:34;;;;;;;15.93;10.20;;;;;;;20.14;100.00;100111.13;5050705;28;20663;-73
2022/07/08 02:32:01;;;;;;;17.08;11.48;;;;;;;20.09;100.00;100118.28;5050112;28;20203;-74
2022/07/08 02:34:29;;;;;;;16.63;11.07;;;;;;;19.97;100.00;100085.22;5050246;28;20200;-74
2022/07/08 02:36:56;;;;;;;16.23;11.88;;;;;;;20.13;100.00;100105.00;5050280;28;20204;-73
2022/07/08 02:39:23;;;;;;;15.60;11.82;;;;;;;20.04;100.00;100086.81;5050467;28;20204;-73
2022/07/08 02:41:50;;;;;;;15.75;10.63;;;;;;;20.25;100.00;100119.66;5050221;28;20214;-73
2022/07/08 02:44:17;;;;;;;18.15;12.02;;;;;;;20.22;100.00;100099.53;5049999;28;20204;-73
2022/07/08 02:46:46;;;;;;;16.42;13.05;;;;;;;20.38;100.00;100115.84;5050386;28;20310;-74
2022/07/08 02:49:13;;;;;;;19.17;13.20;;;;;;;20.43;100.00;100113.13;5052618;28;20210;-73
2022/07/08 02:51:41;;;;;;;18.77;13.90;;;;;;;20.54;100.00;100121.63;5059201;28;20304;-73
2022/07/08 02:54:08;;;;;;;19.88;14.77;;;;;;;20.59;100.00;100112.69;5053838;28;20695;-74
2022/07/08 02:56:35;;;;;;;20.05;15.00;;;;;;;20.73;100.00;100112.31;5054081;28;20199;-73
2022/07/08 02:59:03;;;;;;;16.50;13.85;;;;;;;20.41;100.00;100041.16;5053466;28;20200;-73
2022/07/08 03:01:30;;;;;;;19.85;13.80;;;;;;;20.69;100.00;100108.91;5053936;28;20299;-73
2022/07/08 03:03:58;;;;;;;17.52;13.55;;;;;;;20.73;100.00;100102.66;5053331;28;20196;-73
2022/07/08 03:06:25;;;;;;;19.55;11.80;;;;;;;20.58;100.00;100096.94;5053768;28;20250;-73
2022/07/08 03:08:52;;;;;;;13.93;11.23;;;;;;;20.34;100.00;100086.97;5053743;28;20200;-73
2022/07/08 03:11:19;;;;;;;13.45;10.63;;;;;;;20.19;100.00;100067.16;5053609;28;20204;-73
2022/07/08 03:13:45;;;;;;;16.95;10.95;;;;;;;20.14;100.00;100054.09;5052252;28;20585;-73
2022/07/08 03:16:12;;;;;;;11.93;8.45;;;;;;;19.83;100.00;100025.91;5052338;28;20649;-73
2022/07/08 03:18:39;;;;;;;12.55;9.23;;;;;;;20.01;100.00;100044.72;5053070;28;20199;-74
2022/07/08 03:21:08;;;;;;;13.27;9.43;;;;;;;20.28;100.00;100080.09;5053443;28;20214;-75
2022/07/08 03:23:35;;;;;;;8.65;7.78;;;;;;;20.97;100.00;100095.00;5052962;28;20196;-74
2022/07/08 03:26:02;;;;;;;12.63;6.93;;;;;;;21.02;100.00;100101.88;5053632;28;20242;-73
2022/07/08 03:28:29;;;;;;;15.48;6.70;;;;;;;21.47;100.00;100134.06;5034342;28;20227;-73
2022/07/08 03:30:56;;;;;;;8.88;6.75;;;;;;;21.75;100.00;100134.13;5053103;28;20207;-73
2022/07/08 03:33:23;;;;;;;9.23;6.93;;;;;;;22.14;100.00;100146.16;5053269;28;20595;-72
2022/07/08 03:35:50;;;;;;;7.55;6.47;;;;;;;22.05;100.00;100090.97;5053113;28;20549;-74
2022/07/08 03:38:18;;;;;;;6.95;6.18;;;;;;;23.15;100.00;100168.34;5053083;28;20210;-73
2022/07/08 03:43:29;;;;;;;15.88;6.78;;;;;;;24.17;100.00;100194.63;5053095;28;20327;-73
2022/07/08 03:45:56;;;;;;;9.15;6.00;;;;;;;24.63;100.00;100196.31;5052991;28;20191;-73
2022/07/08 03:48:23;;;;;;;7.65;5.57;;;;;;;25.30;100.00;100203.25;5053139;28;20242;-73
2022/07/08 03:50:50;;;;;;;5.97;5.28;;;;;;;25.33;100.00;100208.44;5051878;28;20206;-73
2022/07/08 03:53:18;;;;;;;7.20;5.82;;;;;;;25.18;100.00;100202.00;5051340;28;20254;-73
2022/07/08 03:55:46;;;;;;;6.47;5.35;;;;;;;25.47;100.00;100224.66;5052997;28;20219;-74
2022/07/08 03:58:12;;;;;;;5.55;5.05;;;;;;;25.58;100.00;100228.56;5034088;28;20747;-73
2022/07/08 04:00:39;;;;;;;7.28;5.10;;;;;;;25.36;100.00;100226.91;5034903;28;20862;-73
2022/07/08 04:03:06;;;;;;;5.00;4.60;;;;;;;26.07;100.00;100237.88;5052698;28;20195;-73
2022/07/08 04:05:33;;;;;;;5.28;4.78;;;;;;;26.22;100.00;100240.78;5052788;28;20191;-73
2022/07/08 04:08:00;;;;;;;5.55;5.05;;;;;;;24.96;100.00;100225.94;5052278;28;20223;-74
2022/07/08 04:10:28;;;;;;;5.80;5.15;;;;;;;24.84;100.00;100233.50;5056923;28;20207;-73
2022/07/08 04:12:55;;;;;;;5.70;5.20;;;;;;;24.15;100.00;100230.06;5039427;28;20208;-74
2022/07/08 04:15:22;;;;;;;5.60;5.10;;;;;;;23.55;100.00;100235.78;5029115;28;20754;-73
2022/07/08 04:17:49;;;;;;;7.22;5.45;;;;;;;23.20;100.00;100203.44;5051195;28;20195;-75
2022/07/08 04:20:16;;;;;;;9.43;6.05;;;;;;;22.85;100.00;100206.44;5049992;28;20204;-73
2022/07/08 04:22:43;;;;;;;6.82;5.90;;;;;;;22.45;100.00;100221.81;5051944;28;20199;-73
2022/07/08 04:25:10;;;;;;;10.38;5.93;;;;;;;22.22;100.00;100218.06;5052399;28;20211;-74
2022/07/08 04:27:38;;;;;;;8.77;5.68;;;;;;;22.39;100.00;100227.28;5017142;28;20236;-74
2022/07/08 04:30:06;;;;;;;6.45;5.85;;;;;;;22.60;100.00;100192.25;5020157;28;20207;-75
2022/07/08 04:32:33;;;;;;;6.50;5.65;;;;;;;22.66;100.00;100221.13;5043303;28;20209;-75
2022/07/08 04:34:59;;;;;;;6.20;5.60;;;;;;;22.61;100.00;100229.22;5035195;28;20616;-73
2022/07/08 04:37:27;;;;;;;7.85;5.20;;;;;;;22.81;100.00;100223.31;5040504;28;20203;-74
2022/07/08 04:39:54;;;;;;;5.85;5.40;;;;;;;23.06;100.00;100221.56;5036733;28;20201;-73
2022/07/08 04:42:22;;;;;;;7.28;6.20;;;;;;;23.62;100.00;100246.09;5035752;28;20189;-73
2022/07/08 04:44:50;;;;;;;8.98;7.60;;;;;;;23.89;100.00;100238.94;5034716;28;20329;-74
2022/07/08 04:47:17;;;;;;;520.35;341.85;;;;;;;23.85;100.00;100239.97;5033383;28;20230;-74
2022/07/08 04:49:44;;;;;;;8.70;7.80;;;;;;;23.86;100.00;100223.19;5018441;28;20204;-74
2022/07/08 04:52:10;;;;;;;13.35;7.40;;;;;;;23.75;100.00;100238.59;5040357;28;20219;-74
2022/07/08 04:54:38;;;;;;;12.07;7.05;;;;;;;23.72;100.00;100233.41;5047865;28;20231;-73
2022/07/08 04:57:05;;;;;;;6.70;6.10;;;;;;;23.85;100.00;100241.75;5051826;28;20191;-75
2022/07/08 04:59:32;;;;;;;6.68;6.18;;;;;;;24.49;100.00;100243.72;5051806;28;20576;-75
2022/07/08 05:02:00;;;;;;;11.00;6.32;;;;;;;25.50;100.00;100248.41;5050847;28;20281;-73
2022/07/08 05:04:28;;;;;;;9.40;5.63;;;;;;;24.97;100.00;100251.50;5051679;28;20207;-74
2022/07/08 05:06:54;;;;;;;11.77;5.88;;;;;;;25.68;100.00;100247.63;5051234;28;20207;-73
2022/07/08 05:09:21;;;;;;;7.03;6.40;;;;;;;26.46;100.00;100260.91;5038280;28;20202;-74
2022/07/08 05:11:48;;;;;;;6.30;5.80;;;;;;;26.42;100.00;100256.66;5050862;28;20199;-74
2022/07/08 05:14:15;;;;;;;5.65;5.15;;;;;;;26.23;100.00;100258.44;5050999;28;20226;-72
2022/07/08 05:16:43;;;;;;;6.90;4.78;;;;;;;25.22;100.00;100253.16;5050838;28;20207;-74
2022/07/08 05:19:11;;;;;;;5.38;4.90;;;;;;;25.28;100.00;100226.34;5050382;28;20238;-72
2022/07/08 05:21:38;;;;;;;54.55;33.28;;;;;;;25.72;100.00;100258.97;5042111;28;20200;-73
2022/07/08 05:24:06;;;;;;;14.93;10.50;;;;;;;25.73;100.00;100258.03;5051144;28;20195;-73
2022/07/08 05:26:33;;;;;;;4.78;4.43;;;;;;;26.39;100.00;100262.97;5043247;28;20208;-75
2022/07/08 05:29:00;;;;;;;4.30;4.00;;;;;;;27.45;100.00;100235.59;5050480;28;20215;-76
2022/07/08 05:31:27;;;;;;;4.45;4.15;;;;;;;27.74;93.15;100266.91;5046858;28;20227;-74
2022/07/08 05:33:54;;;;;;;4.75;4.30;;;;;;;27.74;94.26;100279.34;5049785;28;20215;-76
2022/07/08 05:36:23;;;;;;;7.35;4.38;;;;;;;27.48;93.20;100280.69;5050657;28;20211;-75
2022/07/08 05:38:49;;;;;;;5.15;4.63;;;;;;;26.85;97.09;100279.44;5050329;28;20250;-76
2022/07/08 05:41:16;;;;;;;5.97;4.97;;;;;;;26.24;100.00;100278.78;5050817;28;20660;-74
2022/07/08 05:43:43;;;;;;;5.43;4.78;;;;;;;25.90;100.00;100268.78;5050706;28;20203;-74
2022/07/08 05:46:10;;;;;;;5.45;4.95;;;;;;;25.89;100.00;100278.56;5050897;28;20199;-74
2022/07/08 05:48:37;;;;;;;5.07;4.68;;;;;;;26.08;100.00;100271.47;5050723;28;20230;-74
2022/07/08 05:51:04;;;;;;;5.25;4.75;;;;;;;26.12;100.00;100289.00;5051030;28;20207;-74
2022/07/08 05:53:32;;;;;;;7.70;4.60;;;;;;;25.70;100.00;100271.47;5050174;28;20610;-74
2022/07/08 05:55:59;;;;;;;7.20;4.32;;;;;;;26.09;100.00;100272.31;5050681;28;20249;-74
2022/07/08 05:58:26;;;;;;;5.45;5.05;;;;;;;25.32;100.00;100268.66;5050424;28;20191;-72
2022/07/08 06:00:53;;;;;;;5.57;5.03;;;;;;;25.33;100.00;100257.06;5050538;28;20620;-74
2022/07/08 06:03:20;;;;;;;5.95;5.35;;;;;;;25.22;100.00;100250.53;5048684;28;20207;-73
2022/07/08 06:05:46;;;;;;;5.55;5.05;;;;;;;25.54;100.00;100247.38;5050700;28;20644;-74
2022/07/08 06:08:13;;;;;;;5.05;4.70;;;;;;;25.46;100.00;100265.41;5052948;28;20234;-74
2022/07/08 06:10:42;;;;;;;5.18;4.78;;;;;;;25.27;100.00;100259.13;5050119;28;20206;-74
2022/07/08 06:13:08;;;;;;;5.75;5.22;;;;;;;25.00;100.00;100239.94;5050370;28;20225;-74
2022/07/08 06:15:35;;;;;;;6.15;4.30;;;;;;;25.52;100.00;100262.50;5049997;28;20740;-74
2022/07/08 06:18:02;;;;;;;8.65;4.50;;;;;;;25.33;100.00;100264.19;5055662;28;20203;-74
2022/07/08 06:20:29;;;;;;;6.20;4.38;;;;;;;25.50;100.00;100265.22;5015287;28;20211;-74
2022/07/08 06:22:56;;;;;;;3.90;3.60;;;;;;;26.10;100.00;100274.06;5050580;28;20204;-73
2022/07/08 06:25:22;;;;;;;4.63;4.28;;;;;;;26.78;98.84;100277.97;5050759;28;20651;-72
2022/07/08 06:27:51;;;;;;;4.03;3.78;;;;;;;26.86;99.36;100276.69;5054237;28;20231;-75
2022/07/08 06:30:18;;;;;;;4.90;4.10;;;;;;;26.89;98.78;100270.38;5054218;28;20242;-73
2022/07/08 06:32:44;;;;;;;6.43;4.00;;;;;;;26.57;100.00;100272.75;5054220;28;20215;-74
2022/07/08 06:35:11;;;;;;;4.63;4.10;;;;;;;26.34;100.00;100272.09;5054223;28;20215;-74
2022/07/08 06:37:38;;;;;;;4.72;4.22;;;;;;;25.84;100.00;100267.25;5060849;28;20759;-74
2022/07/08 06:40:07;;;;;;;4.40;4.00;;;;;;;25.48;100.00;100252.91;5059816;28;20203;-70
2022/07/08 06:42:34;;;;;;;4.60;4.30;;;;;;;26.00;100.00;100264.78;4967588;28;20208;-75
2022/07/08 06:45:02;;;;;;;4.00;3.70;;;;;;;25.79;100.00;100271.06;5046724;28;20192;-74
2022/07/08 06:47:28;;;;;;;4.15;3.95;;;;;;;25.94;100.00;100273.88;5074035;28;20678;-75
2022/07/08 06:49:55;;;;;;;4.45;4.05;;;;;;;25.60;100.00;100237.34;5074094;28;20204;-74
2022/07/08 06:52:22;;;;;;;4.57;4.18;;;;;;;25.83;100.00;100236.28;5074099;28;20213;-75
2022/07/08 06:54:49;;;;;;;5.53;4.13;;;;;;;26.02;100.00;100250.50;5074114;28;20226;-75
2022/07/08 06:57:16;;;;;;;5.15;4.60;;;;;;;25.32;100.00;100230.59;5073377;28;20199;-74
2022/07/08 06:59:43;;;;;;;8.75;4.40;;;;;;;25.46;100.00;100253.00;5073293;28;20248;-75
2022/07/08 07:02:11;;;;;;;4.40;4.10;;;;;;;25.78;100.00;100248.94;5073225;28;20202;-75
2022/07/08 07:04:38;;;;;;;6.53;4.18;;;;;;;25.34;100.00;100249.97;5073179;28;20202;-76
2022/07/08 07:07:05;;;;;;;4.63;4.22;;;;;;;25.68;100.00;100231.69;5073272;28;20201;-74
2022/07/08 07:09:32;;;;;;;4.20;3.80;;;;;;;26.18;100.00;100245.38;5072997;28;20222;-74
2022/07/08 07:11:59;;;;;;;4.63;3.78;;;;;;;26.52;100.00;100234.00;5073181;28;20260;-74
2022/07/08 07:14:27;;;;;;;5.07;3.70;;;;;;;26.37;100.00;100248.00;5073100;28;20197;-73
2022/07/08 07:16:53;;;;;;;3.90;3.70;;;;;;;25.96;100.00;100242.81;5073197;28;20199;-74
2022/07/08 07:19:22;;;;;;;5.15;4.00;;;;;;;26.03;100.00;100225.66;5073020;28;20512;-75
2022/07/08 07:21:48;;;;;;;6.95;4.03;;;;;;;26.53;100.00;100249.03;5072936;28;20591;-75
2022/07/08 07:24:15;;;;;;;3.50;3.30;;;;;;;26.65;100.00;100260.88;5073033;28;20207;-74
2022/07/08 07:26:42;;;;;;;3.67;3.38;;;;;;;25.87;99.21;100251.19;5072928;28;20206;-74
2022/07/08 07:29:09;;;;;;;3.88;3.63;;;;;;;25.56;100.00;100241.06;5037506;28;20227;-74
2022/07/08 07:31:37;;;;;;;3.72;3.42;;;;;;;25.51;100.00;100247.47;5072883;28;20211;-74
2022/07/08 07:34:04;;;;;;;3.60;3.17;;;;;;;25.22;100.00;100234.59;5072686;28;20195;-73
2022/07/08 07:36:32;;;;;;;3.30;2.85;;;;;;;25.87;100.00;100247.66;5072442;28;20222;-74
2022/07/08 07:38:59;;;;;;;3.70;3.45;;;;;;;25.82;100.00;100242.56;5072779;28;20221;-75
2022/07/08 07:41:26;;;;;;;3.90;3.60;;;;;;;25.73;98.21;100247.41;5072671;28;20221;-74
2022/07/08 07:43:54;;;;;;;3.60;3.30;;;;;;;25.69;96.73;100249.34;5072844;28;20777;-74
2022/07/08 07:46:21;;;;;;;3.58;3.22;;;;;;;26.34;91.88;100250.81;5072438;28;20202;-75
2022/07/08 07:48:48;;;;;;;3.53;3.33;;;;;;;26.55;87.94;100253.31;5072666;28;20226;-75
2022/07/08 07:51:15;;;;;;;4.53;3.20;;;;;;;26.93;84.61;100262.13;5072599;28;20207;-75
2022/07/08 07:53:43;;;;;;;3.50;3.30;;;;;;;27.17;81.42;100246.75;5054211;28;20622;-75
2022/07/08 07:56:10;;;;;;;7.45;3.22;;;;;;;27.10;83.43;100232.91;5046529;28;20207;-73
2022/07/08 07:58:38;;;;;;;3.25;2.97;;;;;;;26.82;82.23;100240.53;5038311;28;20211;-74
2022/07/08 08:01:05;;;;;;;4.25;3.35;;;;;;;26.48;86.31;100251.91;5052617;28;20196;-74
2022/07/08 08:03:32;;;;;;;3.30;2.78;;;;;;;26.57;83.25;100243.50;5018169;28;20215;-75
2022/07/08 08:05:59;;;;;;;5.38;2.83;;;;;;;26.45;81.77;100221.94;5052595;28;20203;-73
2022/07/08 08:08:26;;;;;;;3.65;3.25;;;;;;;26.42;82.07;100222.06;5052223;28;20223;-74
2022/07/08 08:10:54;;;;;;;7.50;3.17;;;;;;;26.54;82.35;100224.16;5052043;28;20211;-72
2022/07/08 08:13:21;;;;;;;2.75;2.45;;;;;;;26.45;79.50;100222.78;5052072;28;20211;-72
2022/07/08 08:15:48;;;;;;;3.60;3.30;;;;;;;26.11;84.02;100204.03;5052066;28;20199;-73
2022/07/08 08:18:15;;;;;;;3.00;2.80;;;;;;;26.27;83.12;100197.06;5051750;28;20207;-70
2022/07/08 08:20:42;;;;;;;3.72;2.75;;;;;;;26.27;87.07;100213.03;5052025;28;20210;-72
2022/07/08 08:23:09;;;;;;;3.05;2.85;;;;;;;26.32;81.79;100210.16;5052050;28;20214;-74
2022/07/08 08:25:36;;;;;;;3.85;3.00;;;;;;;25.73;84.87;100200.47;5051975;28;20203;-75
2022/07/08 08:28:05;;;;;;;2.67;2.47;;;;;;;25.47;82.32;100188.31;5051929;28;20298;-74
2022/07/08 08:30:32;;;;;;;3.33;3.10;;;;;;;25.51;86.17;100125.34;5051602;28;20643;-77
2022/07/08 08:32:59;;;;;;;2.78;2.58;;;;;;;25.78;84.27;100182.53;5051711;28;20207;-74
2022/07/08 08:35:26;;;;;;;2.72;2.53;;;;;;;26.05;80.22;100198.97;5051667;28;20203;-73
2022/07/08 08:37:53;;;;;;;2.60;2.38;;;;;;;25.86;78.09;100147.63;5051725;28;20222;-74
2022/07/08 08:40:22;;;;;;;2.47;2.38;;;;;;;26.06;75.91;100196.25;5032956;28;20199;-73
2022/07/08 08:42:49;;;;;;;2.50;2.30;;;;;;;25.89;79.29;100193.53;5051583;28;20258;-73
2022/07/08 08:45:17;;;;;;;9.68;3.03;;;;;;;26.20;76.72;100184.13;5051492;28;20214;-73
2022/07/08 08:47:47;;;;;;;2.70;2.50;;;;;;;26.38;77.80;100193.91;5051148;28;20199;-75
2022/07/08 08:53:02;;;;;;;5.18;2.55;;;;;;;26.72;72.26;100193.97;5051579;28;20242;-75
2022/07/08 08:55:31;;;;;;;2.50;2.30;;;;;;;26.56;73.81;100191.22;5051343;28;20609;-76
2022/07/08 08:57:59;;;;;;;2.85;2.65;;;;;;;26.78;77.22;100183.03;5050999;28;20207;-74
2022/07/08 09:00:29;;;;;;;2.65;2.50;;;;;;;26.72;73.85;100188.66;5051040;28;20202;-75
2022/07/08 09:02:57;;;;;;;2.80;2.60;;;;;;;26.71;72.00;100181.63;5051252;28;20203;-74
2022/07/08 09:05:26;;;;;;;2.92;2.72;;;;;;;26.83;73.58;100186.34;5051238;28;20195;-75
2022/07/08 09:07:53;;;;;;;3.55;2.35;;;;;;;26.65;74.77;100187.22;5051226;28;20195;-74
2022/07/08 09:10:20;;;;;;;2.53;2.33;;;;;;;26.77;71.28;100165.34;5051055;28;20240;-75
2022/07/08 09:13:08;;;;;;;3.17;2.80;;;;;;;26.94;69.36;100189.34;5051101;28;20478;-74
2022/07/08 09:15:38;;;;;;;4.43;2.40;;;;;;;26.87;72.16;100187.94;5041122;28;20698;-79
2022/07/08 09:18:08;;;;;;;2.60;2.40;;;;;;;26.87;68.63;100187.06;5032064;28;20219;-74
2022/07/08 09:20:41;;;;;;;3.83;2.40;;;;;;;26.64;75.04;100185.53;5050678;28;20265;-74
2022/07/08 09:23:16;;;;;;;2.20;2.10;;;;;;;26.58;69.73;100162.72;5046962;28;20207;-74
2022/07/08 09:25:43;;;;;;;2.85;2.75;;;;;;;26.68;70.85;100181.78;5041827;28;20214;-74
2022/07/08 09:28:10;;;;;;;2.55;2.40;;;;;;;26.57;69.49;100179.66;5015927;28;20203;-74
2022/07/08 09:30:41;;;;;;;3.17;2.30;;;;;;;26.60;71.44;100183.94;5050554;28;20207;-74
2022/07/08 09:33:11;;;;;;;2.42;2.22;;;;;;;26.92;67.00;100185.91;5036617;28;20661;-74
2022/07/08 09:35:39;;;;;;;4.70;2.40;;;;;;;27.01;68.01;100177.44;5050638;28;20268;-73
2022/07/08 09:38:08;;;;;;;6.53;1.92;;;;;;;26.57;66.87;100179.66;5050491;28;20200;-74
2022/07/08 09:40:36;;;;;;;2.33;2.13;;;;;;;26.60;68.36;100173.31;5050922;28;20218;-75
2022/07/08 09:43:11;;;;;;;3.03;2.33;;;;;;;26.90;67.80;100171.81;5050640;28;20200;-75
2022/07/08 09:45:39;;;;;;;1.98;1.88;;;;;;;26.94;67.63;100162.72;5037390;28;20289;-74
2022/07/08 09:48:07;;;;;;;2.25;2.15;;;;;;;27.11;64.57;100161.88;5050712;28;20208;-75
2022/07/08 09:50:36;;;;;;;2.20;2.10;;;;;;;26.97;63.50;100098.69;5017261;28;20660;-75
2022/07/08 09:53:15;;;;;;;2.33;2.00;;;;;;;27.31;67.70;100160.84;5052794;28;20243;-74
2022/07/08 09:55:43;;;;;;;5.75;2.00;;;;;;;27.47;65.68;100159.97;5052678;28;20270;-74
2022/07/08 09:58:13;;;;;;;2.40;2.25;;;;;;;27.57;61.83;100158.53;5050957;28;20203;-74
2022/07/08 10:00:43;;;;;;;2.05;1.90;;;;;;;27.62;60.00;100160.94;5053712;28;20253;-75
2022/07/08 10:03:11;;;;;;;2.25;2.10;;;;;;;27.41;59.73;100133.63;5054756;28;20590;-74
2022/07/08 10:05:38;;;;;;;2.50;2.30;;;;;;;27.40;59.28;100126.56;5054891;28;20203;-75
2022/07/08 10:08:05;;;;;;;2.20;2.10;;;;;;;27.78;61.10;100156.53;5054459;28;20208;-75
2022/07/08 10:10:34;;;;;;;3.97;2.15;;;;;;;27.75;58.05;100134.53;5054338;28;20623;-74
2022/07/08 10:13:02;;;;;;;5.82;2.38;;;;;;;28.02;58.23;100135.66;5054349;28;20191;-74
2022/07/08 10:15:31;;;;;;;2.20;2.10;;;;;;;28.40;59.53;100149.50;5054419;28;20214;-73
2022/07/08 10:18:05;;;;;;;2.88;1.80;;;;;;;28.10;57.06;100146.78;5040664;28;20200;-75
2022/07/08 10:20:34;;;;;;;3.78;2.10;;;;;;;27.84;57.39;100129.53;5054293;28;20675;-74
2022/07/08 10:23:07;;;;;;;3.45;2.33;;;;;;;28.19;56.20;100148.06;5054117;28;20195;-75
2022/07/08 10:25:33;;;;;;;2.67;2.47;;;;;;;28.00;56.88;100154.38;5054183;28;20241;-75
2022/07/08 10:28:08;;;;;;;1.90;1.80;;;;;;;27.37;57.82;100137.41;5035716;28;20262;-75
2022/07/08 10:30:50;;;;;;;2.17;2.08;;;;;;;27.64;57.51;100153.75;5037462;28;20233;-74
2022/07/08 10:33:25;;;;;;;2.10;2.00;;;;;;;28.24;60.48;100146.00;5048459;28;20196;-74
2022/07/08 10:36:09;;;;;;;2.13;1.98;;;;;;;28.86;56.23;100145.09;5039941;28;20239;-72
2022/07/08 10:38:38;;;;;;;2.08;1.92;;;;;;;28.40;56.98;100149.50;5053921;28;20660;-73
2022/07/08 10:41:08;;;;;;;1.70;1.60;;;;;;;28.07;57.96;100147.78;5053985;28;20214;-73
2022/07/08 10:43:36;;;;;;;2.15;2.05;;;;;;;28.25;57.12;100143.25;5053786;28;20235;-73
2022/07/08 10:46:12;;;;;;;3.03;2.00;;;;;;;28.38;56.40;100135.41;5053681;28;20199;-72
2022/07/08 10:49:01;;;;;;;2.13;2.03;;;;;;;28.40;55.38;100133.50;5053663;28;20203;-74
2022/07/08 10:51:47;;;;;;;4.22;2.00;;;;;;;28.36;54.53;100121.31;5011577;28;20590;-73
2022/07/08 10:54:36;;;;;;;2.25;2.15;;;;;;;28.67;55.59;100121.28;5011394;28;20282;-74
2022/07/08 10:57:09;;;;;;;1.85;1.75;;;;;;;28.76;56.42;100114.50;4998811;28;20669;-74
2022/07/08 10:59:36;;;;;;;3.75;1.90;;;;;;;28.94;55.26;100119.63;5011537;28;20216;-73
2022/07/08 11:02:05;;;;;;;3.40;2.13;;;;;;;28.58;56.48;100111.94;4997268;28;20208;-73
2022/07/08 11:04:47;;;;;;;1.80;1.70;;;;;;;28.37;56.01;100113.19;5011522;28;20244;-74
2022/07/08 11:07:31;;;;;;;2.03;1.92;;;;;;;28.52;57.19;100100.78;4998093;28;20224;-73
2022/07/08 11:10:04;;;;;;;3.13;2.33;;;;;;;28.73;54.56;100099.56;5011127;28;20240;-73
2022/07/08 11:12:33;;;;;;;5.88;2.42;;;;;;;28.76;58.02;100078.00;5010573;28;20231;-73
2022/07/08 11:15:01;;;;;;;2.28;2.15;;;;;;;28.61;56.75;100070.03;5011142;28;20213;-72
2022/07/08 11:17:29;;;;;;;6.43;2.20;;;;;;;28.68;56.29;100074.09;5011320;28;20201;-73
2022/07/08 11:19:59;;;;;;;5.95;2.10;;;;;;;29.00;56.58;100071.19;5011092;28;20208;-73
2022/07/08 11:22:27;;;;;;;2.55;2.17;;;;;;;28.93;55.35;100071.69;5010959;28;20201;-73
2022/07/08 11:24:55;;;;;;;2.13;2.03;;;;;;;28.72;54.99;100067.59;5011143;28;20677;-75
2022/07/08 11:27:27;;;;;;;3.30;2.35;;;;;;;28.54;54.18;100045.50;5013293;28;20271;-73